Time;durP1;ratioP1;P1;durP2;ratioP2;P2;SDS_P1;SDS_P2;PMS_P1;PMS_P2;Temp;Humidity;BMP_temperature;BMP_pressure;BME280_temperature;BME280_humidity;BME280_pressure;Samples;Min_cycle;Max_cycle;Signal;HPM_P1;HPM_P2
2024/03/16 00:01:44;;;;;;;68.63;41.88;;;;;;;;;;5006432;28;20029;-41
2024/03/16 00:04:11;;;;;;;76.03;50.55;;;;;;;;;;5006103;28;20034;-39
2024/03/16 00:06:38;;;;;;;70.10;48.60;;;;;;;;;;5006331;28;20018;-40
2024/03/16 00:09:04;;;;;;;60.85;43.70;;;;;;;;;;5005779;28;20026;-33
2024/03/16 00:11:31;;;;;;;56.45;40.25;;;;;;;;;;5006155;28;20022;-35
2024/03/16 00:14:00;;;;;;;50.13;38.95;;;;;;;;;;5005700;28;20089;-42
2024/03/16 00:16:27;;;;;;;53.30;37.63;;;;;;;;;;5006101;28;20037;-34
2024/03/16 00:18:53;;;;;;;55.55;35.38;;;;;;;;;;5005486;28;20041;-39
2024/03/16 00:21:20;;;;;;;53.13;33.50;;;;;;;;;;5005966;28;20029;-36
2024/03/16 00:23:47;;;;;;;47.90;34.00;;;;;;;;;;5004416;28;20068;-36
2024/03/16 00:26:14;;;;;;;45.92;30.77;;;;;;;;;;5005871;28;20321;-38
2024/03/16 00:28:41;;;;;;;51.88;30.95;;;;;;;;;;5005621;28;20277;-34
2024/03/16 00:31:07;;;;;;;47.85;31.20;;;;;;;;;;5005573;28;20250;-34
2024/03/16 00:33:34;;;;;;;43.58;30.25;;;;;;;;;;5005399;28;20056;-38
2024/03/16 00:36:00;;;;;;;34.55;29.75;;;;;;;;;;5005354;28;20037;-39
2024/03/16 00:38:27;;;;;;;34.03;28.83;;;;;;;;;;5005146;28;20084;-36
2024/03/16 00:40:54;;;;;;;44.33;29.63;;;;;;;;;;5005418;28;20045;-41
2024/03/16 00:43:20;;;;;;;38.20;28.35;;;;;;;;;;5005470;28;20030;-33
2024/03/16 00:45:47;;;;;;;37.38;28.17;;;;;;;;;;5005302;28;20206;-45
2024/03/16 00:48:14;;;;;;;39.25;28.38;;;;;;;;;;5005215;28;20077;-37
2024/03/16 00:50:40;;;;;;;34.95;28.85;;;;;;;;;;5005411;28;20029;-33
2024/03/16 00:53:09;;;;;;;33.50;28.08;;;;;;;;;;5004951;28;20030;-45
2024/03/16 00:55:36;;;;;;;35.30;28.23;;;;;;;;;;5005187;28;20306;-47
2024/03/16 00:58:03;;;;;;;34.13;28.02;;;;;;;;;;5004904;28;20050;-39
2024/03/16 01:00:31;;;;;;;38.70;28.70;;;;;;;;;;5004946;28;20033;-41
2024/03/16 01:02:59;;;;;;;41.13;26.65;;;;;;;;;;5004838;28;20089;-42
2024/03/16 01:05:28;;;;;;;38.78;27.10;;;;;;;;;;5004997;28;20030;-41
2024/03/16 01:07:54;;;;;;;33.15;27.27;;;;;;;;;;5004678;28;20045;-42
2024/03/16 01:10:21;;;;;;;32.00;27.38;;;;;;;;;;5004960;28;20041;-44
2024/03/16 01:12:47;;;;;;;33.80;27.48;;;;;;;;;;5004741;28;20041;-41
2024/03/16 01:15:14;;;;;;;34.80;28.27;;;;;;;;;;5004661;28;20026;-44
2024/03/16 01:17:41;;;;;;;35.38;27.75;;;;;;;;;;5004550;28;20026;-44
2024/03/16 01:20:09;;;;;;;49.28;28.13;;;;;;;;;;5004523;28;20081;-44
2024/03/16 01:22:36;;;;;;;41.30;28.42;;;;;;;;;;5004454;28;20250;-50
2024/03/16 01:25:03;;;;;;;34.40;27.35;;;;;;;;;;5004693;28;20321;-47
2024/03/16 01:27:31;;;;;;;59.63;28.80;;;;;;;;;;5004444;28;20042;-43
2024/03/16 01:29:57;;;;;;;43.03;27.17;;;;;;;;;;5004353;28;20026;-40
2024/03/16 01:32:24;;;;;;;34.25;26.40;;;;;;;;;;5004721;28;20094;-43
2024/03/16 01:34:51;;;;;;;35.15;26.90;;;;;;;;;;5004258;28;20022;-46
2024/03/16 01:37:17;;;;;;;36.03;27.17;;;;;;;;;;5004147;28;20030;-40
2024/03/16 01:39:49;;;;;;;108.93;63.78;;;;;;;;;;5004184;28;20028;-42
2024/03/16 01:42:16;;;;;;;58.80;38.65;;;;;;;;;;5004382;28;20030;-40
2024/03/16 01:45:01;;;;;;;48.13;33.03;;;;;;;;;;5004175;28;20029;-40
2024/03/16 01:47:31;;;;;;;42.33;31.58;;;;;;;;;;5004223;28;20326;-46
2024/03/16 01:49:58;;;;;;;35.47;29.50;;;;;;;;;;5004131;28;20085;-44
2024/03/16 01:52:26;;;;;;;45.88;29.60;;;;;;;;;;5004136;28;20026;-44
2024/03/16 01:54:53;;;;;;;71.93;30.15;;;;;;;;;;5004231;28;20089;-49
2024/03/16 01:57:19;;;;;;;51.58;28.83;;;;;;;;;;5003930;28;20038;-37
2024/03/16 01:59:46;;;;;;;46.08;28.15;;;;;;;;;;5004158;28;20048;-39
2024/03/16 02:02:33;;;;;;;43.70;27.80;;;;;;;;;;5004179;28;20352;-34
2024/03/16 02:05:06;;;;;;;52.13;27.17;;;;;;;;;;5003864;28;20030;-38
2024/03/16 02:07:33;;;;;;;47.70;27.48;;;;;;;;;;5003980;28;20030;-45
2024/03/16 02:10:00;;;;;;;37.97;26.80;;;;;;;;;;5003957;28;20022;-35
2024/03/16 02:12:27;;;;;;;32.13;26.50;;;;;;;;;;5004380;28;20034;-37
2024/03/16 02:14:53;;;;;;;40.50;26.35;;;;;;;;;;5004095;28;20023;-40
2024/03/16 02:17:20;;;;;;;41.55;26.45;;;;;;;;;;5003678;28;20030;-34
2024/03/16 02:19:47;;;;;;;38.95;27.05;;;;;;;;;;5004228;28;20184;-44
2024/03/16 02:22:14;;;;;;;37.33;26.60;;;;;;;;;;5004025;28;20022;-41
2024/03/16 02:24:41;;;;;;;33.20;26.02;;;;;;;;;;5003763;28;20244;-36
2024/03/16 02:27:07;;;;;;;33.10;26.42;;;;;;;;;;5004039;28;20231;-38
2024/03/16 02:29:36;;;;;;;28.85;25.75;;;;;;;;;;5003934;28;20029;-37
2024/03/16 02:32:06;;;;;;;38.38;27.00;;;;;;;;;;5003784;28;20098;-41
2024/03/16 02:34:33;;;;;;;35.60;26.00;;;;;;;;;;5003805;28;20023;-41
2024/03/16 02:37:00;;;;;;;37.25;26.50;;;;;;;;;;5003869;28;20046;-47
2024/03/16 02:39:27;;;;;;;30.40;24.83;;;;;;;;;;5003650;28;20073;-41
2024/03/16 02:41:55;;;;;;;28.38;25.38;;;;;;;;;;4984960;28;20039;-45
2024/03/16 02:44:25;;;;;;;32.85;25.95;;;;;;;;;;4984357;28;20066;-43
2024/03/16 02:46:54;;;;;;;30.90;26.35;;;;;;;;;;4985149;28;20027;-45
2024/03/16 02:49:21;;;;;;;30.58;24.80;;;;;;;;;;4987884;28;20023;-44
2024/03/16 02:51:48;;;;;;;40.40;26.02;;;;;;;;;;4987755;28;20019;-47
2024/03/16 02:54:15;;;;;;;38.80;26.23;;;;;;;;;;4987603;28;20028;-37
2024/03/16 02:56:42;;;;;;;30.73;25.30;;;;;;;;;;4988181;28;20077;-34
2024/03/16 02:59:08;;;;;;;33.42;25.63;;;;;;;;;;4987779;28;20046;-36
2024/03/16 03:01:36;;;;;;;35.30;25.13;;;;;;;;;;4987971;28;20027;-34
2024/03/16 03:04:05;;;;;;;29.38;25.35;;;;;;;;;;4987651;28;20326;-40
2024/03/16 03:06:32;;;;;;;28.27;25.40;;;;;;;;;;4988010;28;20027;-38
2024/03/16 03:08:58;;;;;;;31.27;25.20;;;;;;;;;;4987440;28;20034;-38
2024/03/16 03:11:25;;;;;;;36.72;26.70;;;;;;;;;;4987853;28;20093;-37
2024/03/16 03:13:52;;;;;;;29.95;26.85;;;;;;;;;;4987545;28;20082;-37
2024/03/16 03:16:23;;;;;;;32.70;25.17;;;;;;;;;;4987686;28;20264;-33
2024/03/16 03:18:55;;;;;;;31.08;24.92;;;;;;;;;;4987463;28;20243;-38
2024/03/16 03:21:21;;;;;;;29.92;25.92;;;;;;;;;;4987625;28;20307;-45
2024/03/16 03:23:48;;;;;;;28.83;24.67;;;;;;;;;;4987567;28;20347;-34
2024/03/16 03:26:14;;;;;;;31.30;25.25;;;;;;;;;;4987650;28;20040;-33
2024/03/16 03:28:41;;;;;;;32.88;24.67;;;;;;;;;;4987235;28;20069;-39
2024/03/16 03:31:10;;;;;;;28.02;24.42;;;;;;;;;;4987318;28;20033;-34
2024/03/16 03:33:36;;;;;;;35.25;24.88;;;;;;;;;;4987124;28;20185;-39
2024/03/16 03:36:04;;;;;;;34.60;23.95;;;;;;;;;;4987404;28;20074;-36
2024/03/16 03:38:30;;;;;;;31.35;24.83;;;;;;;;;;4986938;28;20046;-35
2024/03/16 03:40:57;;;;;;;27.52;22.73;;;;;;;;;;4999218;28;20097;-43
2024/03/16 03:43:24;;;;;;;27.50;24.55;;;;;;;;;;5006385;28;20030;-36
2024/03/16 03:45:52;;;;;;;26.25;23.35;;;;;;;;;;5006553;28;20030;-38
2024/03/16 03:48:35;;;;;;;26.02;23.48;;;;;;;;;;5006580;28;20088;-45
2024/03/16 03:51:05;;;;;;;26.33;23.45;;;;;;;;;;5006379;28;20040;-38
2024/03/16 03:53:32;;;;;;;28.50;22.77;;;;;;;;;;5006495;28;20026;-37
2024/03/16 03:55:59;;;;;;;24.70;22.17;;;;;;;;;;5006805;28;20026;-34
2024/03/16 03:58:26;;;;;;;26.98;22.60;;;;;;;;;;5005755;28;20041;-35
2024/03/16 04:00:53;;;;;;;24.95;22.30;;;;;;;;;;5006425;28;20224;-40
2024/03/16 04:03:19;;;;;;;26.17;23.50;;;;;;;;;;5006076;28;20082;-38
2024/03/16 04:05:46;;;;;;;25.25;22.70;;;;;;;;;;5006165;28;20030;-41
2024/03/16 04:08:12;;;;;;;25.13;22.50;;;;;;;;;;5005922;28;20218;-46
2024/03/16 04:10:39;;;;;;;24.67;22.33;;;;;;;;;;5006059;28;20018;-34
2024/03/16 04:13:06;;;;;;;24.42;22.10;;;;;;;;;;5005699;28;20030;-34
2024/03/16 04:15:32;;;;;;;25.05;22.55;;;;;;;;;;5006034;28;20025;-41
2024/03/16 04:17:59;;;;;;;24.50;22.15;;;;;;;;;;5005784;28;20085;-38
2024/03/16 04:20:25;;;;;;;25.85;21.50;;;;;;;;;;5005767;28;20014;-38
2024/03/16 04:22:52;;;;;;;25.33;22.45;;;;;;;;;;5005826;28;20026;-34
2024/03/16 04:25:21;;;;;;;24.00;21.55;;;;;;;;;;5005667;28;20049;-40
2024/03/16 04:27:48;;;;;;;24.13;21.70;;;;;;;;;;5005417;28;20038;-41
2024/03/16 04:30:15;;;;;;;24.73;22.00;;;;;;;;;;5005580;28;20045;-43
2024/03/16 04:32:41;;;;;;;24.65;22.25;;;;;;;;;;5005533;28;20030;-36
2024/03/16 04:35:08;;;;;;;24.75;22.10;;;;;;;;;;5005255;28;20110;-36
2024/03/16 04:37:35;;;;;;;24.77;22.35;;;;;;;;;;5005484;28;20085;-37
2024/03/16 04:40:04;;;;;;;24.45;21.92;;;;;;;;;;5005363;28;20042;-41
2024/03/16 04:42:30;;;;;;;23.90;21.40;;;;;;;;;;5005118;28;20022;-39
2024/03/16 04:44:57;;;;;;;24.20;21.92;;;;;;;;;;5005257;28;20014;-36
2024/03/16 04:47:23;;;;;;;23.80;21.27;;;;;;;;;;5005238;28;20026;-35
2024/03/16 04:49:50;;;;;;;25.52;22.65;;;;;;;;;;5004986;28;20026;-42
2024/03/16 04:52:17;;;;;;;24.75;22.10;;;;;;;;;;5005329;28;20041;-39
2024/03/16 04:54:44;;;;;;;23.98;21.13;;;;;;;;;;5005173;28;20030;-37
2024/03/16 04:57:12;;;;;;;23.33;20.95;;;;;;;;;;5004761;28;20026;-40
2024/03/16 04:59:39;;;;;;;24.25;21.65;;;;;;;;;;5005126;28;20096;-44
2024/03/16 05:02:06;;;;;;;23.85;21.48;;;;;;;;;;5004963;28;20081;-36
2024/03/16 05:04:32;;;;;;;24.27;21.80;;;;;;;;;;5004715;28;20018;-43
2024/03/16 05:06:59;;;;;;;23.45;21.35;;;;;;;;;;5004977;28;20072;-41
2024/03/16 05:09:25;;;;;;;24.55;22.15;;;;;;;;;;5004453;28;20019;-45
2024/03/16 05:11:52;;;;;;;24.67;22.00;;;;;;;;;;5005107;28;20029;-43
2024/03/16 05:14:18;;;;;;;24.30;21.67;;;;;;;;;;5004704;28;20231;-43
2024/03/16 05:16:45;;;;;;;30.80;21.45;;;;;;;;;;5005175;28;20072;-42
2024/03/16 05:19:11;;;;;;;23.45;21.15;;;;;;;;;;5004733;28;20026;-42
2024/03/16 05:21:38;;;;;;;25.38;22.17;;;;;;;;;;5004514;28;20023;-50
2024/03/16 05:24:05;;;;;;;25.90;21.38;;;;;;;;;;5004599;28;20027;-41
2024/03/16 05:26:31;;;;;;;24.42;21.70;;;;;;;;;;5005126;28;20025;-40
2024/03/16 05:28:58;;;;;;;23.70;21.23;;;;;;;;;;5004714;28;20022;-43
2024/03/16 05:31:27;;;;;;;24.95;21.13;;;;;;;;;;5004973;28;20026;-46
2024/03/16 05:33:53;;;;;;;23.52;21.13;;;;;;;;;;5004504;28;20035;-41
2024/03/16 05:36:20;;;;;;;24.38;21.83;;;;;;;;;;5004770;28;20023;-38
2024/03/16 05:38:46;;;;;;;27.50;21.73;;;;;;;;;;5004468;28;20034;-33
2024/03/16 05:41:13;;;;;;;24.02;21.65;;;;;;;;;;5004627;28;20053;-34
2024/03/16 05:43:43;;;;;;;23.95;21.55;;;;;;;;;;5004279;28;20072;-34
2024/03/16 05:46:09;;;;;;;23.00;20.73;;;;;;;;;;5004639;28;20410;-34
2024/03/16 05:48:36;;;;;;;24.30;21.85;;;;;;;;;;5004382;28;20034;-37
2024/03/16 05:51:02;;;;;;;24.63;22.17;;;;;;;;;;5004498;28;20085;-38
2024/03/16 05:53:29;;;;;;;23.27;21.15;;;;;;;;;;5004326;28;20080;-39
2024/03/16 05:55:56;;;;;;;24.35;22.02;;;;;;;;;;5004628;28;20026;-35
2024/03/16 05:58:23;;;;;;;23.40;21.10;;;;;;;;;;5004018;28;20094;-38
2024/03/16 06:00:49;;;;;;;23.23;20.73;;;;;;;;;;5004504;28;20034;-35
2024/03/16 06:03:16;;;;;;;24.90;21.67;;;;;;;;;;5004269;28;20026;-35
2024/03/16 06:05:47;;;;;;;23.15;20.80;;;;;;;;;;5003949;28;20061;-39
2024/03/16 06:08:16;;;;;;;24.58;22.05;;;;;;;;;;5004118;28;20049;-34
2024/03/16 06:10:43;;;;;;;26.30;21.15;;;;;;;;;;5004322;28;20022;-40
2024/03/16 06:13:13;;;;;;;23.00;20.35;;;;;;;;;;5004027;28;20121;-35
2024/03/16 06:15:40;;;;;;;24.52;22.10;;;;;;;;;;5004247;28;20026;-34
2024/03/16 06:18:06;;;;;;;26.30;21.60;;;;;;;;;;5003970;28;20029;-46
2024/03/16 06:20:33;;;;;;;23.10;20.77;;;;;;;;;;5004111;28;20263;-39
2024/03/16 06:23:00;;;;;;;22.75;20.55;;;;;;;;;;5006352;28;20021;-38
2024/03/16 06:25:29;;;;;;;24.58;22.00;;;;;;;;;;5008012;28;20040;-46
2024/03/16 06:28:05;;;;;;;24.20;21.73;;;;;;;;;;5007867;28;20026;-38
2024/03/16 06:30:32;;;;;;;23.67;21.38;;;;;;;;;;5007901;28;20302;-40
2024/03/16 06:33:11;;;;;;;23.48;21.33;;;;;;;;;;5007568;28;20326;-33
2024/03/16 06:35:41;;;;;;;23.67;21.38;;;;;;;;;;5007825;28;20034;-35
2024/03/16 06:38:08;;;;;;;23.30;20.75;;;;;;;;;;5007604;28;20192;-45
2024/03/16 06:40:34;;;;;;;22.45;20.45;;;;;;;;;;5007658;28;20056;-35
2024/03/16 06:43:01;;;;;;;23.10;20.73;;;;;;;;;;5007576;28;20223;-36
2024/03/16 06:45:27;;;;;;;23.13;21.05;;;;;;;;;;5007690;28;20199;-34
2024/03/16 06:47:54;;;;;;;23.75;21.45;;;;;;;;;;5007334;28;20125;-37
2024/03/16 06:50:23;;;;;;;23.63;21.23;;;;;;;;;;5007409;28;20034;-47
2024/03/16 06:52:50;;;;;;;23.67;21.33;;;;;;;;;;5007486;28;20214;-36
2024/03/16 06:55:17;;;;;;;23.40;21.25;;;;;;;;;;5007765;28;20222;-37
2024/03/16 06:57:47;;;;;;;24.08;21.77;;;;;;;;;;5007189;28;20030;-41
2024/03/16 07:00:14;;;;;;;23.08;20.95;;;;;;;;;;5007419;28;20023;-35
2024/03/16 07:02:40;;;;;;;23.70;21.33;;;;;;;;;;5007105;28;20248;-35
2024/03/16 07:05:07;;;;;;;23.85;21.35;;;;;;;;;;5007306;28;20218;-36
2024/03/16 07:07:34;;;;;;;23.52;21.42;;;;;;;;;;5007093;28;20022;-36
2024/03/16 07:10:01;;;;;;;22.98;20.80;;;;;;;;;;5006959;28;20026;-35
2024/03/16 07:12:27;;;;;;;23.30;20.88;;;;;;;;;;5007082;28;20093;-36
2024/03/16 07:14:54;;;;;;;23.80;21.48;;;;;;;;;;5006985;28;20030;-37
2024/03/16 07:17:21;;;;;;;23.73;21.40;;;;;;;;;;5006686;28;20022;-40
2024/03/16 07:19:47;;;;;;;22.63;20.40;;;;;;;;;;5006886;28;20018;-34
2024/03/16 07:22:15;;;;;;;22.95;20.85;;;;;;;;;;5006831;28;20022;-39
2024/03/16 07:24:41;;;;;;;22.67;20.60;;;;;;;;;;5006715;28;20018;-40
2024/03/16 07:27:09;;;;;;;24.83;20.98;;;;;;;;;;5006929;28;20022;-47
2024/03/16 07:29:36;;;;;;;23.40;21.05;;;;;;;;;;5006902;28;20057;-40
2024/03/16 07:32:02;;;;;;;24.63;22.23;;;;;;;;;;5006535;28;20108;-39
2024/03/16 07:34:29;;;;;;;24.08;21.67;;;;;;;;;;5006185;28;20086;-41
2024/03/16 07:36:58;;;;;;;24.15;21.80;;;;;;;;;;5007001;28;20325;-40
2024/03/16 07:39:25;;;;;;;24.58;21.98;;;;;;;;;;5006302;28;20053;-40
2024/03/16 07:41:51;;;;;;;25.00;22.17;;;;;;;;;;5006831;28;20046;-40
2024/03/16 07:44:19;;;;;;;24.52;22.02;;;;;;;;;;5006672;28;20086;-43
2024/03/16 07:46:46;;;;;;;24.77;21.83;;;;;;;;;;5006712;28;20311;-47
2024/03/16 07:49:13;;;;;;;28.02;22.38;;;;;;;;;;5006312;28;20086;-40
2024/03/16 07:51:43;;;;;;;39.75;23.00;;;;;;;;;;5006215;28;20022;-42
2024/03/16 07:54:12;;;;;;;34.72;21.42;;;;;;;;;;5006087;28;20089;-41
2024/03/16 07:56:39;;;;;;;30.92;21.42;;;;;;;;;;5006692;28;20045;-46
2024/03/16 07:59:09;;;;;;;28.77;21.65;;;;;;;;;;5006077;28;20074;-40
2024/03/16 08:01:36;;;;;;;32.08;21.67;;;;;;;;;;5006467;28;20026;-37
2024/03/16 08:04:03;;;;;;;27.65;20.83;;;;;;;;;;5006062;28;20034;-35
2024/03/16 08:06:29;;;;;;;28.77;20.35;;;;;;;;;;5006393;28;20022;-35
2024/03/16 08:08:56;;;;;;;26.67;20.60;;;;;;;;;;5005857;28;20037;-37
2024/03/16 08:11:22;;;;;;;24.65;22.08;;;;;;;;;;5006367;28;20029;-36
2024/03/16 08:13:49;;;;;;;23.73;21.30;;;;;;;;;;5005962;28;20125;-45
2024/03/16 08:16:16;;;;;;;24.75;22.00;;;;;;;;;;5006091;28;20081;-38
2024/03/16 08:18:42;;;;;;;25.02;22.25;;;;;;;;;;5005793;28;20041;-37
2024/03/16 08:21:12;;;;;;;27.73;23.10;;;;;;;;;;5006149;28;20211;-45
2024/03/16 08:23:39;;;;;;;26.88;22.58;;;;;;;;;;5005531;28;20026;-55
2024/03/16 08:26:06;;;;;;;25.20;22.70;;;;;;;;;;5006043;28;20026;-41
2024/03/16 08:28:32;;;;;;;26.17;23.52;;;;;;;;;;5005637;28;20093;-40
2024/03/16 08:31:00;;;;;;;25.45;22.85;;;;;;;;;;5005787;28;20050;-37
2024/03/16 08:33:27;;;;;;;25.83;23.38;;;;;;;;;;5005755;28;20214;-40
2024/03/16 08:35:53;;;;;;;38.50;25.20;;;;;;;;;;5005492;28;20026;-40
2024/03/16 08:38:20;;;;;;;35.72;25.63;;;;;;;;;;5005568;28;20029;-39
2024/03/16 08:40:47;;;;;;;28.45;25.23;;;;;;;;;;5005339;28;20174;-42
2024/03/16 08:43:14;;;;;;;33.53;24.95;;;;;;;;;;5005274;28;20026;-42
2024/03/16 08:45:40;;;;;;;29.98;26.20;;;;;;;;;;5004567;28;20026;-47
2024/03/16 08:48:07;;;;;;;29.80;25.95;;;;;;;;;;5005515;28;20053;-49
2024/03/16 08:50:34;;;;;;;38.20;27.63;;;;;;;;;;5005356;28;20022;-41
2024/03/16 08:53:01;;;;;;;33.88;27.42;;;;;;;;;;5005195;28;20034;-41
2024/03/16 08:55:28;;;;;;;48.75;28.48;;;;;;;;;;5005252;28;20026;-47
2024/03/16 08:57:54;;;;;;;53.83;30.38;;;;;;;;;;5005056;28;20028;-46
2024/03/16 09:00:21;;;;;;;68.55;31.42;;;;;;;;;;5005012;28;20022;-42
2024/03/16 09:02:48;;;;;;;56.33;30.30;;;;;;;;;;5005069;28;20022;-47
2024/03/16 09:05:15;;;;;;;52.85;30.52;;;;;;;;;;5004978;28;20029;-46
2024/03/16 09:07:41;;;;;;;55.35;30.35;;;;;;;;;;5004720;28;20098;-40
2024/03/16 09:10:10;;;;;;;61.40;31.27;;;;;;;;;;5004885;28;20065;-52
2024/03/16 09:12:37;;;;;;;71.05;31.98;;;;;;;;;;5004772;28;20038;-42
2024/03/16 09:15:07;;;;;;;71.22;30.75;;;;;;;;;;5004742;28;20022;-43
2024/03/16 09:17:34;;;;;;;50.45;29.65;;;;;;;;;;5004912;28;20030;-45
2024/03/16 09:20:07;;;;;;;49.30;31.48;;;;;;;;;;5004736;28;20026;-46
2024/03/16 09:22:37;;;;;;;55.40;31.45;;;;;;;;;;5004526;28;20026;-44
2024/03/16 09:25:08;;;;;;;69.60;31.48;;;;;;;;;;5004805;28;20026;-46
2024/03/16 09:27:38;;;;;;;77.95;32.47;;;;;;;;;;5004581;28;20053;-39
2024/03/16 09:30:05;;;;;;;57.55;31.92;;;;;;;;;;5004779;28;20038;-44
2024/03/16 09:32:32;;;;;;;56.25;31.67;;;;;;;;;;5004624;28;20037;-44
2024/03/16 09:34:58;;;;;;;53.22;32.13;;;;;;;;;;5004474;28;20029;-42
2024/03/16 09:37:25;;;;;;;48.22;31.58;;;;;;;;;;5004421;28;20030;-36
2024/03/16 09:39:52;;;;;;;76.88;34.85;;;;;;;;;;5004164;28;20203;-42
2024/03/16 09:42:21;;;;;;;90.35;34.70;;;;;;;;;;5004458;28;20022;-44
2024/03/16 09:44:48;;;;;;;92.85;35.97;;;;;;;;;;5004267;28;20085;-38
2024/03/16 09:47:16;;;;;;;115.18;38.05;;;;;;;;;;5004296;28;20026;-42
2024/03/16 09:49:43;;;;;;;108.28;34.50;;;;;;;;;;5004440;28;20206;-40
2024/03/16 09:52:16;;;;;;;77.90;33.83;;;;;;;;;;5004272;28;20373;-40
2024/03/16 09:54:43;;;;;;;73.85;33.92;;;;;;;;;;5004373;28;20081;-40
2024/03/16 09:57:14;;;;;;;56.13;34.35;;;;;;;;;;5007084;28;20038;-42
2024/03/16 09:59:48;;;;;;;55.50;32.57;;;;;;;;;;5008359;28;20026;-35
2024/03/16 10:02:22;;;;;;;51.03;33.10;;;;;;;;;;5008229;28;20026;-35
2024/03/16 10:04:49;;;;;;;52.22;34.00;;;;;;;;;;5008239;28;20026;-37
2024/03/16 10:07:15;;;;;;;43.83;32.08;;;;;;;;;;5008417;28;20349;-40
2024/03/16 10:09:55;;;;;;;44.92;32.30;;;;;;;;;;5008136;28;20231;-41
2024/03/16 10:12:24;;;;;;;40.35;33.00;;;;;;;;;;5008074;28;20042;-38
2024/03/16 10:15:19;;;;;;;41.33;32.55;;;;;;;;;;5008165;28;20242;-35
2024/03/16 10:17:46;;;;;;;38.50;33.42;;;;;;;;;;5007863;28;20037;-44
2024/03/16 10:20:15;;;;;;;37.55;33.30;;;;;;;;;;5008179;28;20302;-40
2024/03/16 10:22:45;;;;;;;35.95;32.10;;;;;;;;;;5007855;28;20290;-37
2024/03/16 10:25:13;;;;;;;38.95;33.65;;;;;;;;;;5007985;28;20317;-40
2024/03/16 10:27:40;;;;;;;44.97;34.10;;;;;;;;;;5007593;28;20043;-44
2024/03/16 10:30:15;;;;;;;38.78;34.65;;;;;;;;;;5007809;28;20341;-38
2024/03/16 10:32:46;;;;;;;39.80;34.95;;;;;;;;;;5008102;28;20274;-42
2024/03/16 10:35:18;;;;;;;36.75;32.88;;;;;;;;;;5007653;28;20055;-43
2024/03/16 10:37:48;;;;;;;38.75;34.05;;;;;;;;;;5007577;28;20039;-40
2024/03/16 10:40:18;;;;;;;38.88;34.53;;;;;;;;;;5007365;28;20066;-38
2024/03/16 10:42:46;;;;;;;49.33;36.28;;;;;;;;;;5007693;28;20026;-36
2024/03/16 10:45:23;;;;;;;47.70;34.75;;;;;;;;;;5007587;28;20069;-41
2024/03/16 10:47:55;;;;;;;48.40;34.03;;;;;;;;;;5007341;28;20034;-34
2024/03/16 10:50:24;;;;;;;38.33;34.17;;;;;;;;;;5007544;28;20052;-38
2024/03/16 10:52:51;;;;;;;44.15;34.85;;;;;;;;;;5007301;28;20069;-44
2024/03/16 10:55:22;;;;;;;43.00;33.50;;;;;;;;;;5007621;28;20262;-45
2024/03/16 10:57:49;;;;;;;43.58;33.88;;;;;;;;;;5007254;28;20030;-44
2024/03/16 11:00:35;;;;;;;44.30;35.08;;;;;;;;;;5007217;28;20022;-41
2024/03/16 11:03:12;;;;;;;45.95;36.13;;;;;;;;;;5007345;28;20019;-41
2024/03/16 11:05:56;;;;;;;47.28;36.28;;;;;;;;;;5007198;28;20076;-46
2024/03/16 11:08:40;;;;;;;47.90;36.28;;;;;;;;;;5006253;28;20045;-45
2024/03/16 11:11:08;;;;;;;46.28;36.55;;;;;;;;;;5007505;28;20038;-42
2024/03/16 11:13:35;;;;;;;46.88;37.28;;;;;;;;;;5007032;28;20255;-41
2024/03/16 11:16:23;;;;;;;51.45;37.15;;;;;;;;;;5007082;28;20026;-43
2024/03/16 11:18:52;;;;;;;43.63;36.88;;;;;;;;;;4997172;28;20045;-38
2024/03/16 11:21:22;;;;;;;44.63;36.65;;;;;;;;;;5007024;28;20029;-41
2024/03/16 11:23:49;;;;;;;44.60;36.40;;;;;;;;;;5006946;28;20229;-41
2024/03/16 11:26:27;;;;;;;45.25;35.90;;;;;;;;;;5007281;28;20018;-39
2024/03/16 11:29:04;;;;;;;47.00;35.22;;;;;;;;;;5006637;28;20038;-38
2024/03/16 11:31:40;;;;;;;44.33;34.97;;;;;;;;;;5007066;28;20034;-42
2024/03/16 11:34:11;;;;;;;53.17;35.70;;;;;;;;;;5006764;28;20085;-40
2024/03/16 11:36:41;;;;;;;42.45;34.78;;;;;;;;;;5007304;28;20098;-40
2024/03/16 11:39:11;;;;;;;45.63;36.33;;;;;;;;;;5006306;28;20073;-40
2024/03/16 11:41:44;;;;;;;45.38;34.30;;;;;;;;;;5006588;28;20146;-40
2024/03/16 11:44:14;;;;;;;47.40;35.40;;;;;;;;;;5006303;28;20218;-46
2024/03/16 11:46:42;;;;;;;40.03;34.38;;;;;;;;;;5006550;28;20019;-34
2024/03/16 11:49:15;;;;;;;37.63;33.30;;;;;;;;;;5006201;28;20091;-38
2024/03/16 11:51:42;;;;;;;43.15;32.55;;;;;;;;;;5006378;28;20348;-40
2024/03/16 11:54:10;;;;;;;39.28;32.80;;;;;;;;;;5006025;28;20333;-39
2024/03/16 11:56:36;;;;;;;47.65;32.22;;;;;;;;;;5006453;28;20093;-37
2024/03/16 11:59:04;;;;;;;46.13;31.50;;;;;;;;;;5005900;28;20368;-34
2024/03/16 12:01:36;;;;;;;42.70;31.55;;;;;;;;;;5006152;28;20037;-35
2024/03/16 12:04:03;;;;;;;42.90;31.02;;;;;;;;;;5005965;28;20022;-34
2024/03/16 12:06:31;;;;;;;39.58;30.92;;;;;;;;;;5006267;28;20019;-34
2024/03/16 12:08:58;;;;;;;44.70;30.25;;;;;;;;;;5005857;28;20085;-46
2024/03/16 12:11:24;;;;;;;52.33;30.55;;;;;;;;;;5006241;28;20030;-48
2024/03/16 12:13:51;;;;;;;41.65;30.15;;;;;;;;;;5005891;28;20057;-41
2024/03/16 12:16:18;;;;;;;39.50;29.80;;;;;;;;;;5006002;28;20027;-40
2024/03/16 12:18:45;;;;;;;49.47;29.40;;;;;;;;;;5005791;28;20030;-41
2024/03/16 12:21:12;;;;;;;44.45;29.42;;;;;;;;;;5006170;28;20026;-44
2024/03/16 12:23:39;;;;;;;43.92;30.75;;;;;;;;;;5005532;28;20026;-46
2024/03/16 12:26:09;;;;;;;46.85;30.35;;;;;;;;;;5005969;28;20069;-46
2024/03/16 12:28:36;;;;;;;39.17;29.17;;;;;;;;;;5005618;28;20026;-42
2024/03/16 12:31:03;;;;;;;42.17;36.42;;;;;;;;;;5005761;28;20018;-42
2024/03/16 12:33:29;;;;;;;44.08;39.38;;;;;;;;;;5005493;28;20093;-40
2024/03/16 12:35:56;;;;;;;44.10;39.30;;;;;;;;;;5005506;28;20382;-46
2024/03/16 12:38:23;;;;;;;39.03;33.00;;;;;;;;;;5005449;28;20259;-41
2024/03/16 12:40:50;;;;;;;45.13;31.60;;;;;;;;;;5005400;28;20109;-40
2024/03/16 12:43:17;;;;;;;42.70;29.83;;;;;;;;;;5005416;28;20082;-45
2024/03/16 12:45:44;;;;;;;36.70;30.33;;;;;;;;;;5005312;28;20029;-39
2024/03/16 12:48:11;;;;;;;40.13;29.67;;;;;;;;;;5005328;28;20030;-43
2024/03/16 12:50:38;;;;;;;33.25;27.50;;;;;;;;;;5005480;28;20034;-44
2024/03/16 12:53:04;;;;;;;32.10;28.60;;;;;;;;;;5005103;28;20034;-40
2024/03/16 12:55:31;;;;;;;33.75;28.35;;;;;;;;;;5005241;28;20215;-43
2024/03/16 12:57:57;;;;;;;34.85;26.90;;;;;;;;;;5004971;28;20098;-42
2024/03/16 13:00:24;;;;;;;40.65;28.65;;;;;;;;;;5005059;28;20033;-43
2024/03/16 13:02:51;;;;;;;34.97;26.45;;;;;;;;;;5005092;28;20026;-49
2024/03/16 13:05:17;;;;;;;38.55;27.58;;;;;;;;;;5005142;28;20025;-49
2024/03/16 13:07:44;;;;;;;33.05;27.90;;;;;;;;;;5005039;28;20298;-45
2024/03/16 13:10:10;;;;;;;33.67;27.85;;;;;;;;;;5005193;28;20222;-45
2024/03/16 13:12:37;;;;;;;39.33;27.77;;;;;;;;;;5004800;28;20233;-42
2024/03/16 13:15:03;;;;;;;32.22;26.13;;;;;;;;;;5004669;28;20171;-46
2024/03/16 13:17:30;;;;;;;34.70;27.55;;;;;;;;;;5004630;28;20022;-44
2024/03/16 13:19:56;;;;;;;34.65;26.20;;;;;;;;;;5004755;28;20022;-47
2024/03/16 13:22:23;;;;;;;30.58;27.35;;;;;;;;;;5004502;28;20026;-36
2024/03/16 13:24:50;;;;;;;33.78;27.23;;;;;;;;;;5004553;28;20215;-35
2024/03/16 13:27:16;;;;;;;31.55;25.25;;;;;;;;;;5004732;28;20274;-38
2024/03/16 13:29:44;;;;;;;36.55;26.75;;;;;;;;;;5004455;28;20265;-37
2024/03/16 13:32:11;;;;;;;29.33;26.40;;;;;;;;;;5004055;28;20022;-36
2024/03/16 13:34:38;;;;;;;32.05;27.27;;;;;;;;;;5004675;28;20081;-36
2024/03/16 13:37:06;;;;;;;32.03;27.23;;;;;;;;;;5004309;28;20375;-40
2024/03/16 13:39:32;;;;;;;28.60;25.60;;;;;;;;;;5004108;28;20045;-38
2024/03/16 13:42:01;;;;;;;31.00;26.67;;;;;;;;;;5004657;28;20257;-38
2024/03/16 13:44:28;;;;;;;30.75;26.77;;;;;;;;;;5004204;28;20022;-41
2024/03/16 13:46:56;;;;;;;28.90;25.85;;;;;;;;;;5004806;28;20057;-38
2024/03/16 13:49:22;;;;;;;28.85;25.83;;;;;;;;;;5004434;28;20046;-40
2024/03/16 13:51:49;;;;;;;29.23;25.70;;;;;;;;;;5004718;28;20074;-52
2024/03/16 13:54:15;;;;;;;31.58;26.88;;;;;;;;;;5004288;28;20022;-54
2024/03/16 13:56:42;;;;;;;29.55;25.02;;;;;;;;;;5004748;28;20026;-46
2024/03/16 13:59:10;;;;;;;30.77;26.15;;;;;;;;;;5004029;28;20034;-48
2024/03/16 14:01:37;;;;;;;34.15;25.48;;;;;;;;;;5004707;28;20036;-49
2024/03/16 14:04:05;;;;;;;38.70;25.48;;;;;;;;;;5004152;28;20023;-46
2024/03/16 14:06:31;;;;;;;33.05;25.13;;;;;;;;;;5004455;28;20019;-44
2024/03/16 14:08:58;;;;;;;33.47;25.80;;;;;;;;;;5004380;28;20042;-44
2024/03/16 14:11:25;;;;;;;29.92;25.20;;;;;;;;;;5004476;28;20207;-48
2024/03/16 14:13:51;;;;;;;36.95;26.90;;;;;;;;;;5004048;28;20053;-55
2024/03/16 14:16:18;;;;;;;32.38;25.35;;;;;;;;;;5004359;28;20085;-40
2024/03/16 14:18:45;;;;;;;30.15;25.45;;;;;;;;;;5003995;28;20034;-47
2024/03/16 14:21:12;;;;;;;31.45;24.83;;;;;;;;;;5004576;28;20085;-41